Time;durP1;ratioP1;P1;durP2;ratioP2;P2;SDS_P1;SDS_P2;PMS_P1;PMS_P2;Temp;Humidity;BMP_temperature;BMP_pressure;BME280_temperature;BME280_humidity;BME280_pressure;Samples;Min_cycle;Max_cycle;Signal;HPM_P1;HPM_P2
2022/03/12 00:01:15;;;;;;;9.00;4.43;;;8.60;99.90;;;;;;5106185;28;20094;-67
2022/03/12 00:03:41;;;;;;;9.82;4.78;;;8.50;99.90;;;;;;5104955;28;20073;-65
2022/03/12 00:06:09;;;;;;;8.15;3.90;;;8.60;99.90;;;;;;5106279;28;20454;-67
2022/03/12 00:08:44;;;;;;;8.15;4.43;;;8.60;99.90;;;;;;5108631;28;20036;-66
2022/03/12 00:11:12;;;;;;;7.63;3.97;;;8.60;99.90;;;;;;5106655;28;20534;-68
2022/03/12 00:13:39;;;;;;;6.07;3.97;;;8.60;99.90;;;;;;5107702;28;20038;-67
2022/03/12 00:16:10;;;;;;;5.88;3.97;;;8.50;99.90;;;;;;5107099;28;20036;-67
2022/03/12 00:18:38;;;;;;;12.38;5.93;;;8.40;99.90;;;;;;5102504;27;20503;-67
2022/03/12 00:21:06;;;;;;;125.22;46.67;;;8.40;99.90;;;;;;5103889;28;20114;-65
2022/03/12 00:23:32;;;;;;;60.20;25.00;;;8.50;99.90;;;;;;5104824;28;20036;-68
2022/03/12 00:25:59;;;;;;;54.83;23.55;;;8.40;99.90;;;;;;5102469;28;20457;-65
2022/03/12 00:28:26;;;;;;;30.65;15.23;;;8.40;99.90;;;;;;5103476;28;20181;-68
2022/03/12 00:30:52;;;;;;;15.63;8.38;;;8.20;99.90;;;;;;5100622;28;20399;-66
2022/03/12 00:33:19;;;;;;;10.27;5.55;;;8.20;99.90;;;;;;5094610;28;20039;-70
2022/03/12 00:35:53;;;;;;;7.18;4.47;;;8.00;99.90;;;;;;5104739;28;20119;-66
2022/03/12 00:38:22;;;;;;;11.18;6.28;;;7.90;99.90;;;;;;5114930;28;20119;-67
2022/03/12 00:40:49;;;;;;;10.63;6.35;;;7.90;99.90;;;;;;5114760;28;20085;-66
2022/03/12 00:43:15;;;;;;;12.90;5.72;;;8.10;99.90;;;;;;5111551;28;20050;-67
2022/03/12 00:45:42;;;;;;;11.52;6.78;;;8.20;99.90;;;;;;5107217;28;20512;-68
2022/03/12 00:48:07;;;;;;;9.95;6.55;;;8.20;99.90;;;;;;5101584;28;20035;-68
2022/03/12 00:50:34;;;;;;;10.77;6.38;;;8.30;99.90;;;;;;5114985;28;20120;-68
2022/03/12 00:53:00;;;;;;;14.10;8.32;;;8.30;99.90;;;;;;5108789;28;20504;-68
2022/03/12 00:55:27;;;;;;;18.88;9.52;;;8.30;99.90;;;;;;5101585;28;20788;-68
2022/03/12 00:57:54;;;;;;;48.80;19.73;;;8.30;99.90;;;;;;5096096;28;20460;-66
2022/03/12 01:00:22;;;;;;;135.45;49.28;;;8.20;99.90;;;;;;5095919;28;20516;-68
2022/03/12 01:02:49;;;;;;;106.43;39.13;;;8.30;99.90;;;;;;5095946;28;20051;-67
2022/03/12 01:05:17;;;;;;;63.65;22.95;;;8.30;99.90;;;;;;5098708;28;20047;-68
2022/03/12 01:07:44;;;;;;;36.17;16.00;;;8.30;99.90;;;;;;5116568;28;20042;-67
2022/03/12 01:10:11;;;;;;;23.08;11.32;;;8.20;99.90;;;;;;5115116;28;20043;-70
2022/03/12 01:12:37;;;;;;;56.33;21.50;;;8.30;99.90;;;;;;5114223;28;20031;-67
2022/03/12 01:15:06;;;;;;;113.20;41.45;;;8.30;99.90;;;;;;5112394;28;20470;-67
2022/03/12 01:17:34;;;;;;;46.65;20.02;;;8.20;99.90;;;;;;5113969;28;20473;-68
2022/03/12 01:20:02;;;;;;;27.58;13.43;;;8.30;99.90;;;;;;5113493;28;20069;-68
2022/03/12 01:22:32;;;;;;;15.90;8.93;;;8.20;99.90;;;;;;5113680;28;20422;-68
2022/03/12 01:24:59;;;;;;;15.68;8.57;;;8.20;99.90;;;;;;5113545;28;20032;-67
2022/03/12 01:27:25;;;;;;;19.67;9.98;;;8.20;99.90;;;;;;5113725;27;20058;-68
2022/03/12 01:29:51;;;;;;;103.32;40.30;;;8.10;99.90;;;;;;5114150;28;20066;-69
2022/03/12 01:32:18;;;;;;;84.82;35.03;;;8.10;99.90;;;;;;5115626;28;20448;-69
2022/03/12 01:34:43;;;;;;;29.50;13.60;;;8.00;99.90;;;;;;5113397;28;20059;-67
2022/03/12 01:37:09;;;;;;;16.63;10.02;;;8.00;99.90;;;;;;5115409;27;20035;-66
2022/03/12 01:39:35;;;;;;;18.35;7.82;;;8.00;99.90;;;;;;5113697;28;20024;-67
2022/03/12 01:42:06;;;;;;;33.35;16.40;;;8.10;99.90;;;;;;5115139;28;20074;-67
2022/03/12 01:44:32;;;;;;;102.82;41.42;;;8.10;99.90;;;;;;5115107;28;20043;-66
2022/03/12 01:46:58;;;;;;;46.53;18.98;;;8.20;99.90;;;;;;5114881;28;20035;-67
2022/03/12 01:49:24;;;;;;;14.05;7.32;;;8.20;99.90;;;;;;5115243;28;20042;-68
2022/03/12 01:51:52;;;;;;;11.75;6.70;;;8.20;99.90;;;;;;5115213;28;20036;-67
2022/03/12 01:54:24;;;;;;;10.07;5.85;;;8.10;99.90;;;;;;5115241;28;20394;-67
2022/03/12 01:56:53;;;;;;;10.00;5.88;;;8.10;99.90;;;;;;5115014;28;20035;-68
2022/03/12 01:59:19;;;;;;;11.65;6.85;;;8.10;99.90;;;;;;5114882;28;20031;-67
2022/03/12 02:01:52;;;;;;;8.77;5.90;;;8.00;99.90;;;;;;5114911;28;20181;-67
2022/03/12 02:04:23;;;;;;;8.60;5.78;;;8.00;99.90;;;;;;5115147;28;20044;-67
2022/03/12 02:06:50;;;;;;;10.73;5.60;;;7.90;99.90;;;;;;5114933;28;20035;-67
2022/03/12 02:09:17;;;;;;;8.45;5.80;;;7.90;99.90;;;;;;5114950;27;20043;-67
2022/03/12 02:11:49;;;;;;;8.60;5.72;;;7.90;99.90;;;;;;5094738;28;20051;-67
2022/03/12 02:14:17;;;;;;;22.50;9.40;;;7.90;99.90;;;;;;5094509;28;20427;-67
2022/03/12 02:16:50;;;;;;;17.27;7.38;;;7.90;99.90;;;;;;5093842;28;20733;-67
2022/03/12 02:19:17;;;;;;;50.67;17.90;;;7.90;99.90;;;;;;5096981;28;20040;-66
2022/03/12 02:21:54;;;;;;;84.88;29.08;;;7.90;99.90;;;;;;5106253;28;20406;-68
2022/03/12 02:24:22;;;;;;;16.58;8.68;;;7.90;99.90;;;;;;5115012;28;20041;-67
2022/03/12 02:26:49;;;;;;;27.55;12.02;;;7.80;99.90;;;;;;5113921;28;20043;-67
2022/03/12 02:29:20;;;;;;;45.38;16.35;;;7.80;99.90;;;;;;5113966;28;20080;-67
2022/03/12 02:31:50;;;;;;;8.45;5.78;;;7.90;99.90;;;;;;5114067;28;20052;-67
2022/03/12 02:34:22;;;;;;;8.10;5.78;;;7.90;99.90;;;;;;5114132;28;20047;-67
2022/03/12 02:36:50;;;;;;;7.80;5.60;;;7.90;99.90;;;;;;5112417;28;20043;-67
2022/03/12 02:39:17;;;;;;;9.02;5.97;;;8.00;99.90;;;;;;5112391;28;20039;-66
2022/03/12 02:41:43;;;;;;;20.52;8.20;;;8.00;99.90;;;;;;5112358;27;20537;-67
2022/03/12 02:44:21;;;;;;;11.75;6.88;;;7.90;99.90;;;;;;5113987;27;20048;-67
2022/03/12 02:47:21;;;;;;;9.20;6.03;;;7.70;99.90;;;;;;5114109;28;20118;-67
2022/03/12 02:49:52;;;;;;;11.27;6.45;;;7.70;99.90;;;;;;5114267;28;20044;-67
2022/03/12 02:52:19;;;;;;;9.02;5.80;;;7.70;99.90;;;;;;5102590;28;20514;-66
2022/03/12 02:54:47;;;;;;;9.82;6.90;;;7.40;99.90;;;;;;5103945;28;20077;-67
2022/03/12 02:57:13;;;;;;;13.02;7.82;;;7.20;99.90;;;;;;5112323;28;20055;-67
2022/03/12 02:59:43;;;;;;;9.80;6.90;;;7.10;99.90;;;;;;5113853;28;20031;-67
2022/03/12 03:02:11;;;;;;;10.17;6.40;;;7.00;99.90;;;;;;5113901;28;20047;-68
2022/03/12 03:04:40;;;;;;;9.82;6.68;;;6.90;99.90;;;;;;5113994;28;20054;-67
2022/03/12 03:07:11;;;;;;;10.07;6.22;;;6.90;99.90;;;;;;5113999;28;20043;-68
2022/03/12 03:09:38;;;;;;;13.23;7.53;;;6.90;99.90;;;;;;5114090;28;20047;-67
2022/03/12 03:12:08;;;;;;;6.97;4.82;;;7.10;99.90;;;;;;5113771;28;20113;-70
2022/03/12 03:14:42;;;;;;;11.68;5.82;;;7.60;99.90;;;;;;5113746;28;20046;-70
2022/03/12 03:17:10;;;;;;;14.55;7.45;;;;;;;;;;5113732;28;20524;-71
2022/03/12 03:19:36;;;;;;;8.57;4.80;;;7.80;99.90;;;;;;5113787;28;20142;-67
2022/03/12 03:22:02;;;;;;;15.18;7.22;;;7.80;99.90;;;;;;5113820;28;20047;-67
2022/03/12 03:24:28;;;;;;;15.02;8.00;;;7.70;99.90;;;;;;5113657;28;20023;-67
2022/03/12 03:26:59;;;;;;;12.30;6.97;;;7.80;99.90;;;;;;5113636;28;20093;-67
2022/03/12 03:29:27;;;;;;;7.60;4.93;;;7.80;99.90;;;;;;5113652;28;20574;-67
2022/03/12 03:31:53;;;;;;;13.27;6.68;;;7.80;99.90;;;;;;5113626;28;20529;-67
2022/03/12 03:34:20;;;;;;;6.70;4.40;;;7.80;99.90;;;;;;5113541;28;20031;-66
2022/03/12 03:36:47;;;;;;;6.85;4.45;;;7.80;99.90;;;;;;5113310;28;20070;-67
2022/03/12 03:39:14;;;;;;;8.50;4.53;;;7.70;99.90;;;;;;5113438;28;20043;-67
2022/03/12 03:41:40;;;;;;;7.13;4.90;;;7.70;99.90;;;;;;5113001;28;20514;-67
2022/03/12 03:44:06;;;;;;;11.23;4.95;;;7.70;99.90;;;;;;5113091;28;20044;-67
2022/03/12 03:46:32;;;;;;;8.52;5.25;;;7.70;99.90;;;;;;5112960;28;20118;-67
2022/03/12 03:48:58;;;;;;;14.55;9.10;;;7.70;99.90;;;;;;5113142;28;20054;-67
2022/03/12 03:51:24;;;;;;;13.65;8.10;;;7.70;99.90;;;;;;5113259;28;20067;-68
2022/03/12 03:53:51;;;;;;;11.30;6.55;;;7.70;99.90;;;;;;5113500;28;20123;-67
2022/03/12 03:56:18;;;;;;;15.18;8.27;;;7.70;99.90;;;;;;5113425;28;20039;-67
2022/03/12 03:58:45;;;;;;;35.17;16.95;;;7.70;99.90;;;;;;5113282;28;20122;-66
2022/03/12 04:01:15;;;;;;;20.45;11.18;;;7.80;99.90;;;;;;5112959;28;20043;-66
2022/03/12 04:03:47;;;;;;;32.63;15.95;;;7.80;99.90;;;;;;5113048;28;20043;-66
2022/03/12 04:06:15;;;;;;;24.95;11.90;;;7.70;99.90;;;;;;5112822;28;20035;-68
2022/03/12 04:08:42;;;;;;;19.10;9.73;;;7.60;99.90;;;;;;5112945;28;20051;-68
2022/03/12 04:11:13;;;;;;;17.67;7.78;;;7.60;99.90;;;;;;5113057;28;20034;-67
2022/03/12 04:13:39;;;;;;;10.15;5.55;;;7.60;99.90;;;;;;5112286;28;20047;-67
2022/03/12 04:16:06;;;;;;;26.33;11.43;;;7.60;99.90;;;;;;5111060;28;20119;-67
2022/03/12 04:18:35;;;;;;;14.82;7.95;;;7.50;99.90;;;;;;5112607;28;20088;-67
2022/03/12 04:21:01;;;;;;;8.73;5.25;;;7.50;99.90;;;;;;5112548;28;20514;-68
2022/03/12 04:23:27;;;;;;;14.85;7.75;;;7.50;99.90;;;;;;5112497;28;20123;-67
2022/03/12 04:25:55;;;;;;;11.68;6.97;;;7.50;99.90;;;;;;5113078;28;20502;-67
2022/03/12 04:28:22;;;;;;;10.23;5.53;;;7.60;99.90;;;;;;5112924;28;20039;-68
2022/03/12 04:30:48;;;;;;;12.68;7.18;;;7.60;99.90;;;;;;5113067;28;20092;-67
2022/03/12 04:33:15;;;;;;;12.45;6.60;;;7.50;99.90;;;;;;5112965;28;20067;-68
2022/03/12 04:35:42;;;;;;;12.75;7.15;;;7.50;99.90;;;;;;5112857;28;20510;-66
2022/03/12 04:38:12;;;;;;;12.60;7.82;;;7.40;99.90;;;;;;5112975;28;20390;-67
2022/03/12 04:40:46;;;;;;;11.32;6.50;;;7.40;99.90;;;;;;5112756;28;20039;-68
2022/03/12 04:43:12;;;;;;;6.93;5.00;;;7.40;99.90;;;;;;5112426;28;20059;-67
2022/03/12 04:45:41;;;;;;;7.28;4.80;;;7.30;99.90;;;;;;5112580;28;20495;-67
2022/03/12 04:48:07;;;;;;;10.85;7.65;;;7.30;99.90;;;;;;5112671;28;20458;-67
2022/03/12 04:50:33;;;;;;;9.75;5.43;;;7.20;99.90;;;;;;5116099;28;20149;-68
2022/03/12 04:53:01;;;;;;;8.63;5.95;;;7.20;99.90;;;;;;5116274;28;20036;-67
2022/03/12 04:55:29;;;;;;;11.02;7.32;;;7.10;99.90;;;;;;5116264;28;20127;-68
2022/03/12 04:57:56;;;;;;;9.38;6.07;;;7.10;99.90;;;;;;5116482;28;20118;-69
2022/03/12 05:00:26;;;;;;;11.13;6.75;;;7.10;99.90;;;;;;5116165;28;20180;-69
2022/03/12 05:03:08;;;;;;;10.10;6.30;;;7.00;99.90;;;;;;5116023;28;20053;-68
2022/03/12 05:05:39;;;;;;;7.05;4.28;;;7.00;99.90;;;;;;5115304;28;20043;-69
2022/03/12 05:08:06;;;;;;;5.60;4.15;;;7.00;99.90;;;;;;5113868;28;20039;-69
2022/03/12 05:10:32;;;;;;;7.32;3.72;;;7.00;99.90;;;;;;5115818;27;20126;-68
2022/03/12 05:13:00;;;;;;;5.82;4.53;;;7.00;99.90;;;;;;5115737;28;20108;-68
2022/03/12 05:15:31;;;;;;;7.35;4.38;;;6.90;99.90;;;;;;5116031;28;20039;-69
2022/03/12 05:17:57;;;;;;;8.20;4.13;;;6.90;99.90;;;;;;5116060;28;20096;-69
2022/03/12 05:20:27;;;;;;;5.50;4.22;;;7.00;99.90;;;;;;5115658;28;20059;-72
2022/03/12 05:22:53;;;;;;;5.35;3.75;;;7.10;99.90;;;;;;5115786;28;20094;-66
2022/03/12 05:25:19;;;;;;;5.55;3.65;;;7.00;99.90;;;;;;5114694;27;20035;-71
2022/03/12 05:27:47;;;;;;;4.78;3.38;;;7.00;99.90;;;;;;5115205;28;20040;-71
2022/03/12 05:30:14;;;;;;;6.30;3.50;;;7.00;99.90;;;;;;5115633;28;20039;-69
2022/03/12 05:32:39;;;;;;;6.20;3.95;;;7.00;99.90;;;;;;5115710;28;20043;-68
2022/03/12 05:35:06;;;;;;;6.20;3.88;;;7.10;99.90;;;;;;5115119;28;20123;-68
2022/03/12 05:37:33;;;;;;;4.15;2.78;;;7.10;99.90;;;;;;5115386;28;20035;-67
2022/03/12 05:39:58;;;;;;;3.83;2.97;;;7.00;99.90;;;;;;5115397;28;20494;-69
2022/03/12 05:42:25;;;;;;;7.03;4.22;;;7.10;99.90;;;;;;5115502;28;20058;-69
2022/03/12 05:44:51;;;;;;;8.75;4.18;;;7.10;99.90;;;;;;5115591;28;20038;-63
2022/03/12 05:47:18;;;;;;;8.23;4.63;;;7.10;99.90;;;;;;5115572;27;20115;-70
2022/03/12 05:49:44;;;;;;;5.28;3.50;;;7.20;99.90;;;;;;5115291;27;20039;-68
2022/03/12 05:52:10;;;;;;;5.63;3.65;;;7.10;99.90;;;;;;5115274;28;20040;-66
2022/03/12 05:54:39;;;;;;;6.47;3.70;;;7.10;99.90;;;;;;5114989;27;20039;-66
2022/03/12 05:57:04;;;;;;;5.45;3.45;;;7.30;99.90;;;;;;5115446;27;20078;-66
2022/03/12 05:59:31;;;;;;;5.30;3.75;;;;;;;;;;5115343;28;20031;-70
2022/03/12 06:01:57;;;;;;;9.52;4.32;;;7.50;99.90;;;;;;5113981;28;20044;-67
2022/03/12 06:04:26;;;;;;;8.07;4.88;;;7.30;99.90;;;;;;5115139;28;20047;-66
2022/03/12 06:06:53;;;;;;;5.70;3.63;;;7.30;99.90;;;;;;5114937;28;20118;-65
2022/03/12 06:09:20;;;;;;;3.90;3.03;;;;;;;;;;5115014;28;20463;-66
2022/03/12 06:11:46;;;;;;;4.70;3.17;;;7.30;99.90;;;;;;5115021;28;20047;-66
2022/03/12 06:14:15;;;;;;;5.32;3.20;;;7.00;99.90;;;;;;5114998;28;20043;-65
2022/03/12 06:16:47;;;;;;;5.78;3.25;;;7.00;99.90;;;;;;5114856;28;20071;-63
2022/03/12 06:19:19;;;;;;;5.45;3.53;;;7.10;99.90;;;;;;5114694;28;20035;-66
2022/03/12 06:21:48;;;;;;;5.20;2.92;;;7.20;99.90;;;;;;5114741;28;20071;-65
2022/03/12 06:24:14;;;;;;;3.58;2.83;;;7.20;99.90;;;;;;5114604;28;20039;-64
2022/03/12 06:26:44;;;;;;;3.65;2.70;;;7.30;99.90;;;;;;5114696;28;20502;-67
2022/03/12 06:29:13;;;;;;;3.95;3.08;;;7.30;99.90;;;;;;5114796;28;20383;-67
2022/03/12 06:31:42;;;;;;;4.15;2.90;;;7.20;99.90;;;;;;5114308;28;20039;-68
2022/03/12 06:34:11;;;;;;;4.03;3.10;;;7.20;99.90;;;;;;5113779;28;20027;-67
2022/03/12 06:36:39;;;;;;;3.75;2.80;;;7.20;99.90;;;;;;5113567;28;20035;-62
2022/03/12 06:39:06;;;;;;;3.90;3.10;;;7.30;99.90;;;;;;5113694;28;20118;-63
2022/03/12 06:41:35;;;;;;;13.23;7.40;;;7.10;99.90;;;;;;5114070;28;20548;-66
2022/03/12 06:44:04;;;;;;;5.38;3.53;;;7.20;99.90;;;;;;5114265;27;20044;-65
2022/03/12 06:46:31;;;;;;;4.18;2.80;;;7.10;99.90;;;;;;5114456;28;20047;-63
2022/03/12 06:48:57;;;;;;;3.33;2.67;;;7.10;99.90;;;;;;5114242;28;20049;-66
2022/03/12 06:51:24;;;;;;;4.03;2.47;;;7.20;99.90;;;;;;5114051;28;20130;-66
2022/03/12 06:53:49;;;;;;;13.65;8.20;;;7.30;99.90;;;;;;5114339;28;20110;-67
2022/03/12 06:56:15;;;;;;;7.68;5.10;;;7.40;99.90;;;;;;5113942;28;20467;-65
2022/03/12 06:58:41;;;;;;;5.25;3.75;;;7.50;99.90;;;;;;5095193;28;20093;-65
2022/03/12 07:01:07;;;;;;;5.35;4.03;;;7.50;99.90;;;;;;5110333;28;20043;-65
2022/03/12 07:03:33;;;;;;;11.70;7.38;;;7.50;99.90;;;;;;5113918;28;20631;-63
2022/03/12 07:05:59;;;;;;;4.82;3.50;;;7.50;99.90;;;;;;5113619;28;20467;-66
2022/03/12 07:08:24;;;;;;;4.20;2.42;;;7.50;99.90;;;;;;5113507;27;20122;-66
2022/03/12 07:10:50;;;;;;;4.13;2.67;;;7.60;99.90;;;;;;5112377;28;20512;-65
2022/03/12 07:13:16;;;;;;;5.57;3.25;;;7.60;99.90;;;;;;5112238;28;20043;-64
2022/03/12 07:15:43;;;;;;;4.18;3.10;;;7.60;99.90;;;;;;5111566;28;20082;-66
2022/03/12 07:18:09;;;;;;;3.80;2.55;;;7.50;99.90;;;;;;5112905;28;20075;-65
2022/03/12 07:20:35;;;;;;;5.40;3.25;;;7.70;99.90;;;;;;5112865;28;20062;-65
2022/03/12 07:23:01;;;;;;;6.97;4.82;;;7.70;99.90;;;;;;5112858;28;20106;-66
2022/03/12 07:25:27;;;;;;;10.43;5.45;;;7.80;99.90;;;;;;5112636;28;20088;-65
2022/03/12 07:27:54;;;;;;;11.80;6.30;;;7.70;99.90;;;;;;5112512;28;20126;-65
2022/03/12 07:30:21;;;;;;;11.15;6.65;;;7.80;99.90;;;;;;5112714;28;20032;-65
2022/03/12 07:32:48;;;;;;;7.25;3.03;;;7.80;99.90;;;;;;5113091;27;20039;-64
2022/03/12 07:35:16;;;;;;;25.42;12.43;;;7.90;99.90;;;;;;5112776;28;20063;-65
2022/03/12 07:37:44;;;;;;;7.22;3.60;;;7.90;99.90;;;;;;5109225;28;20560;-65
2022/03/12 07:40:12;;;;;;;5.88;3.67;;;7.90;99.90;;;;;;5112570;28;20040;-65
2022/03/12 07:42:39;;;;;;;5.18;3.15;;;7.90;99.90;;;;;;5112301;28;20059;-65
2022/03/12 07:45:07;;;;;;;10.63;7.07;;;7.80;99.90;;;;;;5112450;28;20031;-65
2022/03/12 07:47:34;;;;;;;5.72;3.40;;;7.80;99.90;;;;;;5111114;28;20533;-65
2022/03/12 07:50:00;;;;;;;5.35;3.38;;;7.70;99.90;;;;;;5104101;28;20035;-65
2022/03/12 07:52:26;;;;;;;9.82;4.85;;;7.80;99.90;;;;;;5091979;28;20044;-66
2022/03/12 07:54:52;;;;;;;18.45;9.13;;;7.80;99.90;;;;;;5092075;28;20092;-65
2022/03/12 07:57:18;;;;;;;7.18;4.28;;;7.80;99.90;;;;;;5092000;28;20399;-63
2022/03/12 07:59:44;;;;;;;6.28;4.07;;;7.80;99.90;;;;;;5092142;28;20071;-64
2022/03/12 08:02:11;;;;;;;18.85;12.05;;;7.90;99.90;;;;;;5109258;28;20050;-65
2022/03/12 08:04:36;;;;;;;10.95;7.05;;;7.90;99.90;;;;;;5112388;28;20065;-65
2022/03/12 08:07:04;;;;;;;12.10;5.20;;;7.80;99.90;;;;;;5106081;28;20494;-65
2022/03/12 08:09:31;;;;;;;8.15;5.10;;;7.80;99.90;;;;;;5112299;28;20051;-65
2022/03/12 08:11:58;;;;;;;6.28;3.60;;;7.80;99.90;;;;;;5099130;28;20039;-64
2022/03/12 08:14:24;;;;;;;6.60;3.95;;;7.90;99.90;;;;;;5109189;28;20134;-63
2022/03/12 08:16:52;;;;;;;5.88;3.90;;;8.00;99.90;;;;;;5105107;28;20035;-65
2022/03/12 08:19:19;;;;;;;7.57;4.88;;;8.00;99.90;;;;;;5099722;28;20043;-64
2022/03/12 08:21:46;;;;;;;16.70;9.90;;;8.00;99.90;;;;;;5101988;28;20089;-65
2022/03/12 08:24:15;;;;;;;9.30;4.75;;;8.00;99.90;;;;;;5108618;28;20036;-66
2022/03/12 08:26:43;;;;;;;9.23;5.72;;;8.10;99.90;;;;;;5115026;28;20044;-66
2022/03/12 08:29:14;;;;;;;11.15;5.82;;;8.10;99.90;;;;;;5116155;28;20043;-65
2022/03/12 08:31:41;;;;;;;8.52;5.38;;;8.20;99.90;;;;;;5116493;28;20043;-64
2022/03/12 08:34:08;;;;;;;8.43;4.80;;;8.30;99.90;;;;;;5116468;28;20040;-65
2022/03/12 08:36:34;;;;;;;6.45;4.70;;;8.30;99.90;;;;;;5116202;28;20127;-65
2022/03/12 08:39:00;;;;;;;8.25;4.90;;;8.50;99.90;;;;;;5115282;28;20035;-65
2022/03/12 08:41:25;;;;;;;7.22;5.68;;;8.50;99.90;;;;;;5109905;28;20044;-64
2022/03/12 08:43:52;;;;;;;8.52;5.82;;;8.50;99.90;;;;;;5116724;28;20035;-64
2022/03/12 08:46:18;;;;;;;6.10;4.00;;;8.60;99.90;;;;;;5116709;28;20046;-65
2022/03/12 08:48:44;;;;;;;6.25;4.05;;;8.70;99.90;;;;;;5099742;28;20040;-64
2022/03/12 08:51:10;;;;;;;6.10;3.40;;;8.70;99.90;;;;;;5095633;28;20044;-64
2022/03/12 08:53:36;;;;;;;5.00;3.05;;;8.70;99.90;;;;;;5104708;28;20035;-64
2022/03/12 08:56:03;;;;;;;7.05;4.80;;;8.90;99.90;;;;;;5107606;27;20036;-65
2022/03/12 08:58:29;;;;;;;6.60;3.45;;;8.80;99.90;;;;;;5102654;28;20040;-65
2022/03/12 09:00:59;;;;;;;6.47;3.95;;;8.80;99.90;;;;;;5112742;28;20397;-64
2022/03/12 09:03:25;;;;;;;7.25;2.80;;;8.80;99.90;;;;;;5104747;28;20096;-65
2022/03/12 09:05:52;;;;;;;6.57;2.72;;;8.90;99.90;;;;;;5099281;28;20040;-66
2022/03/12 09:08:18;;;;;;;5.65;2.72;;;8.90;99.90;;;;;;5098947;28;20123;-65
2022/03/12 09:10:44;;;;;;;4.00;3.00;;;8.90;99.90;;;;;;5096937;28;20031;-65
2022/03/12 09:13:13;;;;;;;6.93;4.18;;;8.90;99.90;;;;;;5114103;28;20052;-65
2022/03/12 09:15:40;;;;;;;6.72;3.95;;;8.90;99.90;;;;;;5114437;28;20040;-67
2022/03/12 09:18:07;;;;;;;8.45;3.42;;;8.90;99.90;;;;;;5113965;28;20039;-67
2022/03/12 09:20:40;;;;;;;6.90;4.40;;;8.90;99.90;;;;;;5101617;28;20035;-67
2022/03/12 09:23:06;;;;;;;5.43;3.80;;;8.90;99.90;;;;;;5102195;28;20905;-65
2022/03/12 09:25:32;;;;;;;8.82;5.65;;;8.90;99.90;;;;;;5101392;28;20051;-66
2022/03/12 09:27:59;;;;;;;14.45;8.57;;;8.80;99.90;;;;;;5101489;28;20054;-64
2022/03/12 09:30:25;;;;;;;7.97;4.68;;;8.90;99.90;;;;;;5102050;28;20387;-64
2022/03/12 09:32:51;;;;;;;6.43;3.55;;;9.00;99.90;;;;;;5099524;28;20039;-64
2022/03/12 09:35:19;;;;;;;7.55;4.75;;;8.90;99.90;;;;;;5099282;28;20460;-65
2022/03/12 09:37:45;;;;;;;10.27;5.50;;;9.00;99.90;;;;;;5099355;28;20055;-64
2022/03/12 09:40:12;;;;;;;10.70;5.60;;;9.00;99.90;;;;;;5092199;28;20061;-66
2022/03/12 09:42:37;;;;;;;10.68;4.82;;;9.10;99.90;;;;;;5095427;28;20051;-65
2022/03/12 09:45:05;;;;;;;8.38;4.68;;;9.10;99.90;;;;;;5103987;28;20376;-64
2022/03/12 09:47:31;;;;;;;9.38;6.03;;;9.10;99.90;;;;;;5092415;28;20055;-65
2022/03/12 09:49:57;;;;;;;8.35;5.22;;;9.10;99.90;;;;;;5092145;28;20092;-66
2022/03/12 09:52:22;;;;;;;9.30;4.60;;;9.00;99.90;;;;;;5099185;28;20047;-65
2022/03/12 09:54:49;;;;;;;6.97;4.47;;;9.00;99.90;;;;;;5098270;28;20506;-64
2022/03/12 09:57:15;;;;;;;8.23;4.65;;;8.90;99.90;;;;;;5105877;28;20043;-65
2022/03/12 09:59:42;;;;;;;13.43;7.40;;;9.10;99.90;;;;;;5110837;28;20502;-65
2022/03/12 10:02:19;;;;;;;6.22;4.60;;;9.20;99.90;;;;;;5112336;28;20475;-70
2022/03/12 10:04:45;;;;;;;6.97;4.90;;;9.20;99.90;;;;;;5109507;28;20046;-66
2022/03/12 10:07:11;;;;;;;8.43;5.28;;;9.20;99.90;;;;;;5111187;28;20036;-66
2022/03/12 10:09:37;;;;;;;13.82;6.63;;;9.20;99.90;;;;;;5102161;28;20040;-65
2022/03/12 10:12:04;;;;;;;10.43;5.07;;;9.20;99.90;;;;;;5101959;28;20036;-64
2022/03/12 10:14:30;;;;;;;7.72;4.68;;;9.20;99.90;;;;;;5090979;28;20044;-65
2022/03/12 10:16:58;;;;;;;11.50;6.45;;;9.00;99.90;;;;;;5093496;28;20081;-69
2022/03/12 10:19:24;;;;;;;9.77;4.88;;;9.00;99.90;;;;;;5100694;28;20043;-67
2022/03/12 10:21:52;;;;;;;19.70;10.55;;;8.90;99.90;;;;;;5097485;28;20109;-66
2022/03/12 10:24:18;;;;;;;11.88;7.20;;;9.00;99.90;;;;;;5092135;28;20044;-66
2022/03/12 10:26:45;;;;;;;19.08;9.85;;;9.10;99.90;;;;;;5091021;28;20035;-66
2022/03/12 10:29:11;;;;;;;14.85;6.97;;;9.00;99.90;;;;;;5091222;28;20062;-67
2022/03/12 10:31:41;;;;;;;25.88;13.38;;;9.10;99.90;;;;;;5091831;28;20036;-65
2022/03/12 10:34:23;;;;;;;46.13;20.23;;;9.20;99.90;;;;;;5093419;28;20064;-64
2022/03/12 10:36:59;;;;;;;24.50;12.45;;;9.20;99.90;;;;;;5091753;28;20267;-67
2022/03/12 10:39:38;;;;;;;7.35;4.60;;;9.30;99.90;;;;;;5091483;28;20047;-67
2022/03/12 10:42:07;;;;;;;8.45;4.95;;;9.10;99.90;;;;;;5090922;28;20048;-65
2022/03/12 10:44:39;;;;;;;8.57;5.68;;;9.20;99.90;;;;;;5091245;28;20068;-69
2022/03/12 10:47:20;;;;;;;6.90;4.60;;;9.20;99.90;;;;;;5090523;28;20043;-66
2022/03/12 10:50:10;;;;;;;7.32;4.57;;;9.20;99.90;;;;;;5091419;28;20031;-64
2022/03/12 10:52:40;;;;;;;7.97;4.68;;;9.20;99.90;;;;;;5091110;28;20051;-64
2022/03/12 10:55:16;;;;;;;7.10;4.13;;;9.30;99.90;;;;;;5089942;28;20036;-64
2022/03/12 10:58:01;;;;;;;8.55;4.90;;;9.20;99.90;;;;;;5092114;28;20043;-64
2022/03/12 11:00:30;;;;;;;18.40;8.95;;;9.20;99.90;;;;;;5091647;28;20391;-65
2022/03/12 11:02:58;;;;;;;6.97;4.47;;;9.40;99.90;;;;;;5091190;28;20127;-64
2022/03/12 11:05:29;;;;;;;5.70;3.85;;;9.30;99.90;;;;;;5098865;28;20067;-64
2022/03/12 11:08:21;;;;;;;7.38;4.32;;;9.30;99.90;;;;;;5111675;28;20058;-66
2022/03/12 11:10:55;;;;;;;7.47;4.95;;;9.40;99.90;;;;;;5110599;28;20387;-65
2022/03/12 11:13:37;;;;;;;8.90;5.45;;;9.30;99.90;;;;;;5112095;28;20035;-65
2022/03/12 11:16:31;;;;;;;8.80;5.25;;;9.20;99.90;;;;;;5111614;28;20039;-64
2022/03/12 11:19:01;;;;;;;7.07;4.72;;;9.10;99.90;;;;;;5111850;28;20043;-66
2022/03/12 11:21:40;;;;;;;6.43;4.30;;;9.30;99.90;;;;;;5112159;28;20036;-64
2022/03/12 11:24:13;;;;;;;6.65;4.30;;;9.30;99.90;;;;;;5111640;28;20043;-65
2022/03/12 11:26:50;;;;;;;5.45;4.45;;;9.10;99.90;;;;;;5111440;28;20104;-69
2022/03/12 11:29:19;;;;;;;5.50;3.97;;;9.20;99.90;;;;;;5113697;28;20103;-69
2022/03/12 11:31:44;;;;;;;7.07;4.78;;;9.40;99.90;;;;;;5100788;28;20037;-68
2022/03/12 11:34:22;;;;;;;9.02;4.85;;;9.30;99.90;;;;;;5090862;28;20434;-64
2022/03/12 11:37:17;;;;;;;5.97;4.15;;;9.30;99.90;;;;;;5091225;28;20040;-68
2022/03/12 11:39:45;;;;;;;8.68;4.45;;;9.30;99.90;;;;;;5091346;28;20063;-66
2022/03/12 11:42:15;;;;;;;5.70;3.97;;;9.20;99.90;;;;;;5090542;28;20056;-66
2022/03/12 11:44:50;;;;;;;5.90;3.67;;;9.20;99.90;;;;;;5091639;28;20126;-65
2022/03/12 11:47:21;;;;;;;7.72;4.75;;;9.40;99.90;;;;;;5093175;28;20044;-65
2022/03/12 11:49:47;;;;;;;;;;;9.40;99.90;;;;;;5093491;28;20435;-70
2022/03/12 11:52:15;;;;;;;6.15;4.22;;;9.40;99.90;;;;;;5107117;28;19912;-65
2022/03/12 11:54:43;;;;;;;12.85;4.13;;;9.30;99.90;;;;;;5111010;28;20043;-65
2022/03/12 11:57:30;;;;;;;9.00;3.95;;;9.40;99.90;;;;;;5111405;28;20047;-68
2022/03/12 11:59:58;;;;;;;6.03;3.50;;;9.50;99.90;;;;;;5115403;28;20149;-65
2022/03/12 12:02:31;;;;;;;6.05;3.65;;;9.40;99.90;;;;;;5115258;28;20040;-65
2022/03/12 12:05:10;;;;;;;8.02;3.30;;;9.40;99.90;;;;;;5115183;28;20108;-64
2022/03/12 12:07:44;;;;;;;7.55;4.28;;;9.40;99.90;;;;;;5115619;28;20435;-64
2022/03/12 12:10:15;;;;;;;6.60;3.53;;;9.30;99.90;;;;;;5114756;28;20387;-64
2022/03/12 12:12:43;;;;;;;5.07;3.35;;;9.30;99.90;;;;;;5115541;28;20087;-66
2022/03/12 12:15:19;;;;;;;6.70;3.78;;;9.20;99.90;;;;;;5115353;28;20073;-66
2022/03/12 12:17:46;;;;;;;6.93;3.58;;;9.30;99.90;;;;;;5115838;28;20035;-65
2022/03/12 12:20:18;;;;;;;7.72;3.92;;;9.40;99.90;;;;;;5116498;28;20068;-68
2022/03/12 12:22:44;;;;;;;5.30;3.28;;;9.50;99.90;;;;;;5117191;28;20119;-67
2022/03/12 12:25:11;;;;;;;5.80;3.45;;;9.50;99.90;;;;;;5116555;28;20039;-65
2022/03/12 12:27:46;;;;;;;6.18;3.63;;;9.50;99.90;;;;;;5116913;28;20036;-67
2022/03/12 12:30:28;;;;;;;5.07;3.60;;;9.50;99.90;;;;;;5114021;28;20039;-67
2022/03/12 12:32:53;;;;;;;6.03;3.70;;;9.50;99.90;;;;;;5114415;28;20039;-66
2022/03/12 12:35:23;;;;;;;5.25;3.33;;;9.40;99.90;;;;;;5114884;28;20152;-65
2022/03/12 12:37:55;;;;;;;4.35;3.20;;;9.50;99.90;;;;;;5113294;28;20502;-66
2022/03/12 12:40:43;;;;;;;4.63;3.08;;;9.50;99.90;;;;;;5114179;28;20050;-66
2022/03/12 12:43:13;;;;;;;4.93;2.90;;;9.50;99.90;;;;;;5114272;27;20134;-65
2022/03/12 12:45:53;;;;;;;4.32;3.03;;;9.50;99.90;;;;;;5108656;27;20089;-65
2022/03/12 12:48:32;;;;;;;5.22;3.28;;;9.60;99.90;;;;;;5102682;28;20044;-65
2022/03/12 12:51:17;;;;;;;5.70;2.88;;;9.50;99.90;;;;;;5095492;28;20032;-64
2022/03/12 12:53:51;;;;;;;5.13;3.00;;;9.60;99.90;;;;;;5094241;28;20051;-67
2022/03/12 12:56:24;;;;;;;6.47;3.50;;;9.50;99.90;;;;;;5095114;28;20028;-66
2022/03/12 12:59:02;;;;;;;4.13;3.00;;;9.60;99.90;;;;;;5094901;28;20112;-65
2022/03/12 13:01:36;;;;;;;4.68;3.05;;;9.60;99.90;;;;;;5093895;28;20040;-66